Hauptseite
METAR-TAF:

METAR-TAF

Flughäfen :

Hongkong, China

Hong Kong International Airport

Breite: 22-19N, Länge: 113-55E, Höhe: 9 m

Beobachtung

Neuester Wetterbericht von vor 12 Minuten, um 00:00 UTC
Wind 4 kt aus Ost/Nordost
Temperatur 18°C
Luftfeuchtigkeit 77%
Luftdruck 1017 hPa
Sichtweite: 5000 m
Leicht bewölkt in der Höhe von 4500 ft

METAR: VHHH 180000Z 07004KT 5000 FEW045 18/14 Q1017 TEMPO 4000 BR

Zeit: 08:12 (00:12 UTC)

Prognose

Neuester Wetterbericht von vor 1 Stunde und 12 Minuten, um 23:00 UTC
Gültige Prognose vom 18 um 00 UTC bis 19 um 06 UTC
Wind 10 kt aus Ost/Nordost
Sichtweite: 8000 m
Leicht bewölkt in der Höhe von 4000 ft
Zeitweise
vom 18 um 00 UTC bis 18 um 09 UTC
Sichtweite: 3500 m
trockener Dunst
Zeitweise
vom 18 um 03 UTC bis 18 um 09 UTC
Wind 10 kt aus Nordwest

TAF: VHHH 172300Z 1800/1906 06010KT 8000 FEW040 TX23/1806Z TX21/1906Z TN18/1823Z TEMPO 1800/1809 3500 HZ TEMPO 1803/1809 32010KT

Wetterbeobachtungen und Prognosen von mehr als 4000 Flughäfen (METAR und TAF Bericht).

Die verfügbaren Stationen werden durch gelbe und rote Markierungen auf der Karte dargestellt.

Führen Sie die Maus auf sie, um den Namen der Station zu sehen.

Darauf klicken, um die Beobachtung von Wetterbeobachtungen und Prognosen zu sehen.

Um die Karte zu ändern : klicken Sie auf den grünen Tasten mit einem schwarzen Kreuz Zum Vergrößern, auf den grünen Button mit einem Gedankenstrich zu verkleinern, oder auf die grünen Pfeile für benachbarte Karten.


METAR-TAF: